createdAt,value
2023-02-12T00:01:33.711Z,24.33
2023-02-12T00:04:01.953Z,21.37
2023-02-12T00:06:30.075Z,21.10
2023-02-12T00:09:00.867Z,21.93
2023-02-12T00:11:31.428Z,25.67
2023-02-12T00:13:59.860Z,23.20
2023-02-12T00:16:29.725Z,21.20
2023-02-12T00:18:59.977Z,21.43
2023-02-12T00:21:28.500Z,23.03
2023-02-12T00:23:59.199Z,25.37
2023-02-12T00:26:27.559Z,20.27
2023-02-12T00:28:56.556Z,21.73
2023-02-12T00:31:28.179Z,20.10
2023-02-12T00:34:00.482Z,20.47
2023-02-12T00:36:30.703Z,20.87
2023-02-12T00:39:01.436Z,20.40
2023-02-12T00:41:32.296Z,18.57
2023-02-12T00:44:00.971Z,21.17
2023-02-12T00:46:29.188Z,20.07
2023-02-12T00:49:01.168Z,20.37
2023-02-12T00:51:29.387Z,19.40
2023-02-12T00:53:57.478Z,19.77
2023-02-12T00:56:26.066Z,21.90
2023-02-12T00:58:54.237Z,21.03
2023-02-12T01:01:24.873Z,19.93
2023-02-12T01:03:53.016Z,24.30
2023-02-12T01:06:24.680Z,21.77
2023-02-12T01:08:53.244Z,19.47
2023-02-12T01:11:22.010Z,23.27
2023-02-12T01:13:50.113Z,22.23
2023-02-12T01:16:20.165Z,18.00
2023-02-12T01:18:49.147Z,19.87
2023-02-12T01:21:19.687Z,20.40
2023-02-12T01:23:52.097Z,17.20
2023-02-12T01:26:22.763Z,20.20
2023-02-12T01:28:53.930Z,22.27
2023-02-12T01:31:25.106Z,21.13
2023-02-12T01:33:55.641Z,23.90
2023-02-12T01:36:24.164Z,19.63
2023-02-12T01:38:53.628Z,19.10
2023-02-12T01:41:24.947Z,23.73
2023-02-12T01:44:11.176Z,23.10
2023-02-12T01:46:42.965Z,18.53
2023-02-12T01:49:15.499Z,19.97
2023-02-12T01:51:47.776Z,18.30
2023-02-12T01:54:20.470Z,20.03
2023-02-12T01:56:49.164Z,24.00
2023-02-12T01:59:18.605Z,19.57
2023-02-12T02:01:47.054Z,18.97
2023-02-12T02:04:22.319Z,21.17
2023-02-12T02:06:55.023Z,20.17
2023-02-12T02:09:26.506Z,20.70
2023-02-12T02:12:14.274Z,22.13
2023-02-12T02:14:45.525Z,23.03
2023-02-12T02:17:39.658Z,21.40
2023-02-12T02:20:44.361Z,21.30
2023-02-12T02:23:41.241Z,18.70
2023-02-12T02:26:23.691Z,21.17
2023-02-12T02:29:05.675Z,21.93
2023-02-12T02:31:41.479Z,17.60
2023-02-12T02:34:16.887Z,21.53
2023-02-12T02:37:00.569Z,20.10
2023-02-12T02:39:38.684Z,17.17
2023-02-12T02:42:12.124Z,16.03
2023-02-12T02:44:45.269Z,16.43
2023-02-12T02:47:16.010Z,18.90
2023-02-12T02:49:51.150Z,16.67
2023-02-12T02:52:23.626Z,17.50
2023-02-12T02:54:58.244Z,18.27
2023-02-12T02:57:29.375Z,18.77
2023-02-12T03:00:04.003Z,24.37
2023-02-12T03:02:37.278Z,18.20
2023-02-12T03:05:10.704Z,17.20
2023-02-12T03:07:42.382Z,17.03
2023-02-12T03:10:15.898Z,14.47
2023-02-12T03:12:49.848Z,18.03
2023-02-12T03:15:25.269Z,18.83
2023-02-12T03:17:59.650Z,17.83
2023-02-12T03:20:31.405Z,16.10
2023-02-12T03:23:05.469Z,15.57
2023-02-12T03:25:39.348Z,19.50
2023-02-12T03:28:16.279Z,23.37
2023-02-12T03:30:53.760Z,20.13
2023-02-12T03:33:34.567Z,21.83
2023-02-12T03:36:08.150Z,17.23
2023-02-12T03:38:43.920Z,19.37
2023-02-12T03:41:17.192Z,19.10
2023-02-12T03:43:50.843Z,23.10
2023-02-12T03:46:26.466Z,21.30
2023-02-12T03:49:02.787Z,20.83
2023-02-12T03:51:35.801Z,21.07
2023-02-12T03:54:04.988Z,20.03
2023-02-12T03:56:42.610Z,20.80
2023-02-12T03:59:10.968Z,17.43
2023-02-12T04:01:42.303Z,19.53
2023-02-12T04:04:12.603Z,23.27
2023-02-12T04:06:43.798Z,19.40
2023-02-12T04:09:13.545Z,24.67
2023-02-12T04:11:55.470Z,22.27
2023-02-12T04:14:32.168Z,21.27
2023-02-12T04:17:07.067Z,23.37
2023-02-12T04:19:56.297Z,22.77
2023-02-12T04:22:34.150Z,22.70
2023-02-12T04:25:16.829Z,22.87
2023-02-12T04:27:53.292Z,21.30
2023-02-12T04:30:25.024Z,20.73
2023-02-12T04:33:01.770Z,21.60
2023-02-12T04:35:34.748Z,21.03
2023-02-12T04:38:10.119Z,20.53
2023-02-12T04:40:41.821Z,25.50
2023-02-12T04:43:12.738Z,22.97
2023-02-12T04:45:41.022Z,24.67
2023-02-12T04:48:09.176Z,25.23
2023-02-12T04:50:42.760Z,23.57
2023-02-12T04:53:11.579Z,22.83
2023-02-12T04:55:39.625Z,23.47
2023-02-12T04:58:08.152Z,20.63
2023-02-12T05:00:36.592Z,21.20
2023-02-12T05:03:06.981Z,19.40
2023-02-12T05:05:35.263Z,19.07
2023-02-12T05:08:07.502Z,21.03
2023-02-12T05:10:35.637Z,19.87
2023-02-12T05:13:03.709Z,18.93
2023-02-12T05:15:31.777Z,17.73
2023-02-12T05:17:59.940Z,22.83
2023-02-12T05:20:30.517Z,22.30
2023-02-12T05:23:00.625Z,18.07
2023-02-12T05:25:31.912Z,18.57
2023-02-12T05:28:00.128Z,25.57
2023-02-12T05:30:30.537Z,20.27
2023-02-12T05:32:58.648Z,24.47
2023-02-12T05:35:29.141Z,21.30
2023-02-12T05:37:57.241Z,29.60
2023-02-12T05:40:25.307Z,23.87
2023-02-12T05:42:54.710Z,27.97
2023-02-12T05:45:27.843Z,25.43
2023-02-12T05:47:58.937Z,24.67
2023-02-12T05:50:27.311Z,23.43
2023-02-12T05:53:01.286Z,27.93
2023-02-12T05:55:29.631Z,24.43
2023-02-12T05:57:59.046Z,25.23
2023-02-12T06:00:27.369Z,25.53
2023-02-12T06:02:55.486Z,24.60
2023-02-12T06:05:23.597Z,28.67
2023-02-12T06:07:51.672Z,27.07
2023-02-12T06:10:20.178Z,24.50
2023-02-12T06:12:48.278Z,28.63
2023-02-12T06:15:17.928Z,24.03
2023-02-12T06:17:45.994Z,26.83
2023-02-12T06:20:16.225Z,23.50
2023-02-12T06:22:46.393Z,22.53
2023-02-12T06:25:14.515Z,22.83
2023-02-12T06:27:42.584Z,24.40
2023-02-12T06:30:12.082Z,20.93
2023-02-12T06:32:44.070Z,23.60
2023-02-12T06:35:12.217Z,24.57
2023-02-12T06:37:40.292Z,21.13
2023-02-12T06:40:09.416Z,22.17
2023-02-12T06:42:37.487Z,28.43
2023-02-12T06:45:06.256Z,25.40
2023-02-12T06:47:34.336Z,23.53
2023-02-12T06:50:07.683Z,23.60
2023-02-12T06:52:35.777Z,27.43
2023-02-12T06:55:03.980Z,21.97
2023-02-12T06:57:32.327Z,25.93
2023-02-12T07:00:00.517Z,25.43
2023-02-12T07:02:28.658Z,28.07
2023-02-12T07:04:56.773Z,25.73
2023-02-12T07:07:26.221Z,26.60
2023-02-12T07:09:54.346Z,26.00
2023-02-12T07:12:22.481Z,25.07
2023-02-12T07:14:50.538Z,26.63
2023-02-12T07:17:20.696Z,28.87
2023-02-12T07:19:48.791Z,24.80
2023-02-12T07:22:19.302Z,27.63
2023-02-12T07:24:49.307Z,28.30
2023-02-12T07:27:17.556Z,31.40
2023-02-12T07:29:45.632Z,32.57
2023-02-12T07:32:14.493Z,25.13
2023-02-12T07:34:42.674Z,30.07
2023-02-12T07:37:10.931Z,31.23
2023-02-12T07:39:41.322Z,30.33
2023-02-12T07:42:15.114Z,29.10
2023-02-12T07:44:50.399Z,31.63
2023-02-12T07:47:20.875Z,31.03
2023-02-12T07:49:48.985Z,30.57
2023-02-12T07:52:17.098Z,27.47
2023-02-12T07:54:45.225Z,32.60
2023-02-12T07:57:14.698Z,29.23
2023-02-12T07:59:42.850Z,24.07
2023-02-12T08:02:11.112Z,27.83
2023-02-12T08:04:41.552Z,29.33
2023-02-12T08:07:12.174Z,29.57
2023-02-12T08:09:40.354Z,28.47
2023-02-12T08:12:09.183Z,29.07
2023-02-12T08:14:38.720Z,31.13
2023-02-12T08:17:08.417Z,25.80
2023-02-12T08:19:36.854Z,28.83
2023-02-12T08:22:07.533Z,26.67
2023-02-12T08:24:37.779Z,32.70
2023-02-12T08:27:06.835Z,28.93
2023-02-12T08:29:34.969Z,30.20
2023-02-12T08:32:10.591Z,28.10
2023-02-12T08:34:40.928Z,28.20
2023-02-12T08:37:09.191Z,29.27
2023-02-12T08:39:39.810Z,28.83
2023-02-12T08:42:07.895Z,33.97
2023-02-12T08:44:36.800Z,29.67
2023-02-12T08:47:07.151Z,26.60
2023-02-12T08:49:35.400Z,29.63
2023-02-12T08:52:03.643Z,29.20
2023-02-12T08:54:32.810Z,32.40
2023-02-12T08:57:02.244Z,35.10
2023-02-12T08:59:30.803Z,27.20
2023-02-12T09:01:59.498Z,28.70
2023-02-12T09:04:31.508Z,24.57
2023-02-12T09:06:59.697Z,32.47
2023-02-12T09:09:27.990Z,28.47
2023-02-12T09:11:56.123Z,28.83
2023-02-12T09:14:25.157Z,25.37
2023-02-12T09:16:54.300Z,28.10
2023-02-12T09:19:22.910Z,26.53
2023-02-12T09:21:56.666Z,26.30
2023-02-12T09:24:25.693Z,27.93
2023-02-12T09:26:54.183Z,28.53
2023-02-12T09:29:22.389Z,23.87
2023-02-12T09:31:50.765Z,26.93
2023-02-12T09:34:19.145Z,25.30
2023-02-12T09:36:47.324Z,24.63
2023-02-12T09:39:19.151Z,26.73
2023-02-12T09:42:18.793Z,26.80
2023-02-12T09:44:56.918Z,24.23
2023-02-12T09:47:31.781Z,24.57
2023-02-12T09:50:25.218Z,24.70
2023-02-12T09:52:57.932Z,24.43
2023-02-12T09:55:30.970Z,20.67
2023-02-12T09:57:59.372Z,21.77
2023-02-12T10:00:31.888Z,28.33
2023-02-12T10:03:05.811Z,19.83
2023-02-12T10:05:39.098Z,18.87
2023-02-12T10:08:34.618Z,17.87
2023-02-12T10:14:02.233Z,17.27
2023-02-12T10:16:47.725Z,15.17
2023-02-12T10:19:51.699Z,17.50
2023-02-12T10:22:51.369Z,15.07
2023-02-12T10:25:42.951Z,16.63
2023-02-12T10:28:24.409Z,16.37
2023-02-12T10:31:00.466Z,16.67
2023-02-12T10:33:42.140Z,15.97
2023-02-12T10:36:25.450Z,18.17
2023-02-12T10:39:06.555Z,17.57
2023-02-12T10:41:42.377Z,15.40
2023-02-12T10:44:11.569Z,14.17
2023-02-12T10:46:41.116Z,13.10
2023-02-12T10:49:12.649Z,12.50
2023-02-12T10:51:55.314Z,12.20
2023-02-12T10:54:41.255Z,13.17
2023-02-12T10:57:20.557Z,11.33
2023-02-12T10:59:55.678Z,12.67
2023-02-12T11:02:28.747Z,11.23
2023-02-12T11:05:01.893Z,10.43
2023-02-12T11:07:30.478Z,11.03
2023-02-12T11:10:22.539Z,9.43
2023-02-12T11:12:50.815Z,11.07
2023-02-12T11:15:21.357Z,10.93
2023-02-12T11:18:00.176Z,10.70
2023-02-12T11:20:33.890Z,11.53
2023-02-12T11:23:06.627Z,11.10
2023-02-12T11:25:39.031Z,13.90
2023-02-12T11:28:18.289Z,12.60
2023-02-12T11:30:54.283Z,12.80
2023-02-12T11:33:27.404Z,10.00
2023-02-12T11:35:58.512Z,10.83
2023-02-12T11:38:31.145Z,9.47
2023-02-12T11:41:06.273Z,10.00
2023-02-12T11:43:39.575Z,7.80
2023-02-12T11:46:09.409Z,8.13
2023-02-12T11:48:41.155Z,11.00
2023-02-12T11:51:19.337Z,15.27
2023-02-12T11:53:51.497Z,12.63
2023-02-12T11:56:20.290Z,9.87
2023-02-12T11:58:49.692Z,8.97
2023-02-12T12:01:21.986Z,9.10
2023-02-12T12:04:00.506Z,9.67
2023-02-12T12:06:34.361Z,8.03
2023-02-12T12:09:11.183Z,8.93
2023-02-12T12:11:49.088Z,9.77
2023-02-12T12:14:23.726Z,9.93
2023-02-12T12:17:14.665Z,8.27
2023-02-12T12:19:53.358Z,8.73
2023-02-12T12:22:34.240Z,8.40
2023-02-12T12:25:10.458Z,9.27
2023-02-12T12:28:05.805Z,6.90
2023-02-12T12:30:54.995Z,6.30
2023-02-12T12:33:31.901Z,6.57
2023-02-12T12:36:36.354Z,6.33
2023-02-12T12:39:17.324Z,7.10
2023-02-12T12:41:59.189Z,7.00
2023-02-12T12:44:51.346Z,5.90
2023-02-12T12:47:27.798Z,5.37
2023-02-12T12:50:10.400Z,5.97
2023-02-12T12:52:57.451Z,4.80
2023-02-12T12:55:50.059Z,6.03
2023-02-12T12:58:30.353Z,5.60
2023-02-12T13:01:30.452Z,4.57
2023-02-12T13:04:22.109Z,4.70
2023-02-12T13:07:02.042Z,5.43
2023-02-12T13:10:00.164Z,6.83
2023-02-12T13:12:38.935Z,6.30
2023-02-12T13:15:18.562Z,6.07
2023-02-12T13:17:54.210Z,5.33
2023-02-12T13:20:33.187Z,4.80
2023-02-12T13:23:05.378Z,4.97
2023-02-12T13:25:42.831Z,7.50
2023-02-12T13:28:18.171Z,4.40
2023-02-12T13:30:51.903Z,8.07
2023-02-12T13:33:23.674Z,4.83
2023-02-12T13:36:00.127Z,6.60
2023-02-12T13:38:36.547Z,4.03
2023-02-12T13:41:09.059Z,5.90
2023-02-12T13:43:52.740Z,9.67
2023-02-12T13:46:30.637Z,5.77
2023-02-12T13:49:08.086Z,6.30
2023-02-12T13:51:45.099Z,6.17
2023-02-12T13:54:27.536Z,5.03
2023-02-12T13:57:00.138Z,5.07
2023-02-12T13:59:45.481Z,7.07
2023-02-12T14:02:43.584Z,6.33
2023-02-12T14:05:32.029Z,5.57
2023-02-12T14:08:03.594Z,10.67
2023-02-12T14:10:35.112Z,6.33
2023-02-12T14:13:18.919Z,7.67
2023-02-12T14:15:51.244Z,4.50
2023-02-12T14:18:28.823Z,5.43
2023-02-12T14:21:42.512Z,6.40
2023-02-12T14:24:50.231Z,6.80
2023-02-12T14:27:44.287Z,5.53
2023-02-12T14:30:35.729Z,4.43
2023-02-12T14:33:25.831Z,4.03
2023-02-12T14:36:20.533Z,3.70
2023-02-12T14:39:00.536Z,4.37
2023-02-12T14:41:41.869Z,4.03
2023-02-12T14:44:44.432Z,3.80
2023-02-12T14:47:53.065Z,6.20
2023-02-12T14:50:36.958Z,4.83
2023-02-12T14:53:22.391Z,4.70
2023-02-12T14:55:52.147Z,3.37
2023-02-12T14:58:21.973Z,4.33
2023-02-12T15:00:55.935Z,4.43
2023-02-12T15:03:30.793Z,5.90
2023-02-12T15:06:14.977Z,5.03
2023-02-12T15:08:46.869Z,4.97
2023-02-12T15:11:24.671Z,7.13
2023-02-12T15:14:00.328Z,6.30
2023-02-12T15:16:39.663Z,5.40
2023-02-12T15:19:39.006Z,6.03
2023-02-12T15:22:22.867Z,8.30
2023-02-12T15:24:51.192Z,5.37
2023-02-12T15:27:22.512Z,6.40
2023-02-12T15:29:52.786Z,5.23
2023-02-12T15:32:25.763Z,4.63
2023-02-12T15:34:56.442Z,5.67
2023-02-12T15:37:27.405Z,5.00
2023-02-12T15:40:00.257Z,5.23
2023-02-12T15:42:32.070Z,5.17
2023-02-12T15:45:20.346Z,5.03
2023-02-12T15:48:12.911Z,6.63
2023-02-12T15:50:53.265Z,6.40
2023-02-12T15:53:25.341Z,4.87
2023-02-12T15:55:54.516Z,6.67
2023-02-12T15:58:26.256Z,5.10
2023-02-12T16:00:55.757Z,5.23
2023-02-12T16:03:26.151Z,6.03
2023-02-12T16:06:01.293Z,5.73
2023-02-12T16:08:30.355Z,6.67
2023-02-12T16:11:13.793Z,5.53
2023-02-12T16:13:47.271Z,6.67
2023-02-12T16:16:24.951Z,6.37
2023-02-12T16:19:18.579Z,6.47
2023-02-12T16:21:51.348Z,6.20
2023-02-12T16:24:32.301Z,7.13
2023-02-12T16:27:08.449Z,7.50
2023-02-12T16:29:45.692Z,5.97
2023-02-12T16:32:38.574Z,5.47
2023-02-12T16:35:27.251Z,6.03
2023-02-12T16:38:01.171Z,5.97
2023-02-12T16:40:35.469Z,7.60
2023-02-12T16:43:22.737Z,6.63
2023-02-12T16:46:04.163Z,5.17
2023-02-12T16:48:37.670Z,7.57
2023-02-12T16:51:06.327Z,6.87
2023-02-12T16:53:46.951Z,6.57
2023-02-12T16:56:21.250Z,5.10
2023-02-12T16:58:51.350Z,5.20
2023-02-12T17:01:23.746Z,4.83
2023-02-12T17:03:53.066Z,5.17
2023-02-12T17:06:23.477Z,5.00
2023-02-12T17:08:53.529Z,5.63
2023-02-12T17:11:23.215Z,5.17
2023-02-12T17:13:53.516Z,5.20
2023-02-12T17:16:31.759Z,6.30
2023-02-12T17:19:00.656Z,4.67
2023-02-12T17:21:31.750Z,4.47
2023-02-12T17:24:01.435Z,5.90
2023-02-12T17:26:29.651Z,7.57
2023-02-12T17:29:05.296Z,4.73
2023-02-12T17:31:34.075Z,4.20
2023-02-12T17:34:02.401Z,5.73
2023-02-12T17:36:30.715Z,5.80
2023-02-12T17:38:58.908Z,6.40
2023-02-12T17:41:30.968Z,5.07
2023-02-12T17:43:59.160Z,4.83
2023-02-12T17:46:29.142Z,4.77
2023-02-12T17:48:57.529Z,5.00
2023-02-12T17:51:28.153Z,5.47
2023-02-12T17:53:58.600Z,5.63
2023-02-12T17:56:30.806Z,5.73
2023-02-12T17:58:59.052Z,5.33
2023-02-12T18:01:27.809Z,6.30
2023-02-12T18:03:59.375Z,6.27
2023-02-12T18:06:29.444Z,6.30
2023-02-12T18:08:58.900Z,6.50
2023-02-12T18:11:27.758Z,4.67
2023-02-12T18:14:00.050Z,5.07
2023-02-12T18:16:32.448Z,5.73
2023-02-12T18:19:03.996Z,5.30
2023-02-12T18:21:33.975Z,9.10
2023-02-12T18:24:02.666Z,8.93
2023-02-12T18:26:30.873Z,9.33
2023-02-12T18:29:00.794Z,9.73
2023-02-12T18:31:29.368Z,11.73
2023-02-12T18:33:57.688Z,7.83
2023-02-12T18:36:25.943Z,7.97
2023-02-12T18:38:54.705Z,6.93
2023-02-12T18:41:25.185Z,6.17
2023-02-12T18:43:53.730Z,7.20
2023-02-12T18:46:25.187Z,7.73
2023-02-12T18:48:53.632Z,8.67
2023-02-12T18:51:24.600Z,7.47
2023-02-12T18:53:55.740Z,8.70
2023-02-12T18:56:23.899Z,7.80
2023-02-12T18:58:57.118Z,7.33
2023-02-12T19:01:27.311Z,6.67
2023-02-12T19:04:00.216Z,7.20
2023-02-12T19:06:31.462Z,8.83
2023-02-12T19:09:02.474Z,7.93
2023-02-12T19:11:31.768Z,7.37
2023-02-12T19:14:00.357Z,7.87
2023-02-12T19:16:30.373Z,8.47
2023-02-12T19:19:02.738Z,8.30
2023-02-12T19:21:33.993Z,7.93
2023-02-12T19:24:03.929Z,9.23
2023-02-12T19:26:36.576Z,8.60
2023-02-12T19:29:07.885Z,8.23
2023-02-12T19:31:39.179Z,7.77
2023-02-12T19:34:13.416Z,9.17
2023-02-12T19:36:44.679Z,6.77
2023-02-12T19:39:15.708Z,6.83
2023-02-12T19:41:44.196Z,6.90
2023-02-12T19:44:18.908Z,7.33
2023-02-12T19:46:49.820Z,6.57
2023-02-12T19:49:20.980Z,7.10
2023-02-12T19:51:51.556Z,6.70
2023-02-12T19:54:21.410Z,9.40
2023-02-12T19:56:50.798Z,8.40
2023-02-12T19:59:23.407Z,8.60
2023-02-12T20:01:56.496Z,7.60
2023-02-12T20:04:27.513Z,7.87
2023-02-12T20:06:55.781Z,9.77
2023-02-12T20:09:24.626Z,8.57
2023-02-12T20:11:53.094Z,10.10
2023-02-12T20:14:22.667Z,9.27
2023-02-12T20:16:51.780Z,8.57
2023-02-12T20:19:26.028Z,8.50
2023-02-12T20:21:55.967Z,10.93
2023-02-12T20:24:29.627Z,8.47
2023-02-12T20:26:59.390Z,9.20
2023-02-12T20:29:27.976Z,8.93
2023-02-12T20:31:56.190Z,10.40
2023-02-12T20:34:25.962Z,8.83
2023-02-12T20:36:54.714Z,10.73
2023-02-12T20:39:23.563Z,13.33
2023-02-12T20:41:51.878Z,10.23
2023-02-12T20:44:22.383Z,9.77
2023-02-12T20:46:55.710Z,9.97
2023-02-12T20:49:28.664Z,10.77
2023-02-12T20:51:56.828Z,9.37
2023-02-12T20:54:25.871Z,10.23
2023-02-12T20:56:54.210Z,9.47
2023-02-12T20:59:22.482Z,9.37
2023-02-12T21:01:50.768Z,8.63
2023-02-12T21:04:20.735Z,9.43
2023-02-12T21:06:50.322Z,10.07
2023-02-12T21:09:20.894Z,11.30
2023-02-12T21:11:51.366Z,8.37
2023-02-12T21:14:22.824Z,8.37
2023-02-12T21:16:53.233Z,8.10
2023-02-12T21:19:22.104Z,8.60
2023-02-12T21:21:54.404Z,9.13
2023-02-12T21:24:24.656Z,8.57
2023-02-12T21:26:56.430Z,8.87
2023-02-12T21:29:29.197Z,10.33
2023-02-12T21:31:57.469Z,8.27
2023-02-12T21:34:25.953Z,8.60
2023-02-12T21:36:56.786Z,7.90
2023-02-12T21:39:27.558Z,9.60
2023-02-12T21:42:02.328Z,8.37
2023-02-12T21:44:32.229Z,8.17
2023-02-12T21:47:00.427Z,8.53
2023-02-12T21:49:28.897Z,9.70
2023-02-12T21:52:02.051Z,8.23
2023-02-12T21:54:31.072Z,7.70
2023-02-12T21:57:02.006Z,8.27
2023-02-12T21:59:33.277Z,8.93
2023-02-12T22:02:01.879Z,7.30
2023-02-12T22:04:32.255Z,7.90
2023-02-12T22:07:03.379Z,8.30
2023-02-12T22:09:34.126Z,8.07
2023-02-12T22:12:04.564Z,8.00
2023-02-12T22:14:32.851Z,7.73
2023-02-12T22:17:00.982Z,8.80
2023-02-12T22:19:31.427Z,7.87
2023-02-12T22:22:00.852Z,8.00
2023-02-12T22:24:31.076Z,7.50
2023-02-12T22:26:59.143Z,9.13
2023-02-12T22:29:27.240Z,8.20
2023-02-12T22:31:55.582Z,8.70
2023-02-12T22:34:26.151Z,10.00
2023-02-12T22:36:54.289Z,9.47
2023-02-12T22:39:29.564Z,9.53
2023-02-12T22:41:58.548Z,9.37
2023-02-12T22:44:26.903Z,8.43
2023-02-12T22:46:55.021Z,13.13
2023-02-12T22:49:25.377Z,9.77
2023-02-12T22:51:55.564Z,10.17
2023-02-12T22:54:27.308Z,13.50
2023-02-12T22:56:55.368Z,12.77
2023-02-12T22:59:23.517Z,11.97
2023-02-12T23:01:51.631Z,15.27
2023-02-12T23:04:22.149Z,13.17
2023-02-12T23:06:53.267Z,14.80
2023-02-12T23:09:23.423Z,16.03
2023-02-12T23:11:54.945Z,15.77
2023-02-12T23:14:23.292Z,14.33
2023-02-12T23:16:53.740Z,18.97
2023-02-12T23:19:24.224Z,15.27
2023-02-12T23:21:52.314Z,15.03
2023-02-12T23:24:20.392Z,17.20
2023-02-12T23:26:48.508Z,15.50
2023-02-12T23:29:18.023Z,15.50
2023-02-12T23:31:46.204Z,17.60
2023-02-12T23:34:14.387Z,16.23
2023-02-12T23:36:42.544Z,15.30
2023-02-12T23:39:13.086Z,15.60
2023-02-12T23:41:41.292Z,14.43
2023-02-12T23:44:10.759Z,15.87
2023-02-12T23:46:40.225Z,13.93
2023-02-12T23:49:08.462Z,16.77
2023-02-12T23:51:36.678Z,16.10
2023-02-12T23:54:04.927Z,15.50
2023-02-12T23:56:32.999Z,15.77
2023-02-12T23:59:01.117Z,15.90
